Decoded Metar for K1S5 ( in ) (IATA:) | Meteo·Mobile Aviation Weather
aviador You're here:

K1S5 Decoded Metar

in
Report Time2018-08-21 11:55:00
UTC Time2018-08-21 12:13:20
Flight Rules vfr VFR
Wind300° at 03 kt
W.Rank300° ranks 28
Current wind is below 300° avg. (5.4)
Visibility9999 m
Phenomena:N/A
Clouds:N/A
Expected CloudBase > 3,600 ft AGL from Temp-Dew spread
CeilingNone
Temp17°C
Dew Point08°C (56% RH)
AAT15.5°C
QNH1020 hPa
Raw Report
METAR K1S5 211155Z AUTO 30003KT 10SM CLR 17/08 A3012 RMK AO2 T01730082
10244 20153=

Extra information for K1S5:More info

Social comments